createdAt,value
2023-03-23T15:58:17.918Z,96911.09
2023-03-23T16:00:46.665Z,96917.43
2023-03-23T16:03:27.679Z,96914.23
2023-03-23T16:05:57.581Z,96916.70
2023-03-23T16:08:26.359Z,96916.95
2023-03-23T16:10:54.371Z,96922.09
2023-03-23T16:13:23.073Z,96920.70
2023-03-23T16:15:51.951Z,96925.58
2023-03-23T16:18:21.586Z,96934.78
2023-03-23T16:20:50.034Z,96941.98
2023-03-23T16:23:18.121Z,96945.48
2023-03-23T16:25:46.116Z,96942.17
2023-03-23T16:28:14.775Z,96945.67
2023-03-23T16:30:43.695Z,96947.07
2023-03-23T16:33:11.648Z,96946.48
2023-03-23T16:35:39.571Z,96943.95
2023-03-23T16:38:09.196Z,96946.04
2023-03-23T16:40:38.106Z,96948.39
2023-03-23T16:43:09.344Z,96948.78
2023-03-23T16:45:39.687Z,96948.93
2023-03-23T16:48:09.886Z,96951.94
2023-03-23T16:50:38.580Z,96954.71
2023-03-23T16:53:08.163Z,96957.80
2023-03-23T16:55:37.311Z,96961.84
2023-03-23T16:58:16.224Z,96966.23
2023-03-23T17:00:49.914Z,96966.50
2023-03-23T17:03:19.254Z,96967.01
2023-03-23T17:05:51.131Z,96968.81
2023-03-23T17:08:19.716Z,96970.35
2023-03-23T17:10:48.385Z,96969.13
2023-03-23T17:13:17.561Z,96976.75
2023-03-23T17:15:47.192Z,96977.65
2023-03-23T17:18:16.580Z,96981.45
2023-03-23T17:20:44.802Z,96983.42
2023-03-23T17:23:12.847Z,96984.24
2023-03-23T17:25:40.940Z,96988.10
2023-03-23T17:28:09.075Z,96990.37
2023-03-23T17:30:39.499Z,96989.52
2023-03-23T17:33:07.452Z,96997.73
2023-03-23T17:35:35.465Z,97000.35
2023-03-23T17:38:03.421Z,97004.38
2023-03-23T17:40:31.325Z,97004.41
2023-03-23T17:42:59.301Z,97011.38
2023-03-23T17:45:27.328Z,97016.44
2023-03-23T17:47:55.372Z,97020.69
2023-03-23T17:50:23.390Z,97023.77
2023-03-23T17:52:51.418Z,97022.07
2023-03-23T17:55:19.428Z,97017.66
2023-03-23T17:57:47.458Z,97014.74
2023-03-23T18:00:15.946Z,97010.73
2023-03-23T18:02:44.054Z,97015.98
2023-03-23T18:05:12.911Z,97019.50
2023-03-23T18:07:41.151Z,97010.34
2023-03-23T18:10:12.832Z,97011.66
2023-03-23T18:12:41.887Z,97009.41
2023-03-23T18:15:10.700Z,97013.23
2023-03-23T18:17:38.983Z,97013.21
2023-03-23T18:20:07.791Z,97010.07
2023-03-23T18:22:36.033Z,97014.80
2023-03-23T18:25:05.209Z,97011.10
2023-03-23T18:27:33.409Z,97005.27
2023-03-23T18:30:03.052Z,97009.88
2023-03-23T18:32:31.514Z,97014.85
2023-03-23T18:34:59.559Z,97021.92
2023-03-23T18:37:27.618Z,97027.77
2023-03-23T18:39:55.915Z,97031.52
2023-03-23T18:42:24.088Z,97032.31
2023-03-23T18:44:54.080Z,97036.65
2023-03-23T18:47:22.205Z,97035.73
2023-03-23T18:49:53.808Z,97039.55
2023-03-23T18:52:22.420Z,97042.23
2023-03-23T18:54:50.470Z,97046.72
2023-03-23T18:57:21.412Z,97054.10
2023-03-23T18:59:49.790Z,97054.70
2023-03-23T19:02:18.949Z,97049.38
2023-03-23T19:04:47.680Z,97047.80
2023-03-23T19:07:16.595Z,97048.33
2023-03-23T19:09:46.309Z,97044.23
2023-03-23T19:12:15.724Z,97044.50
2023-03-23T19:14:44.521Z,97046.21
2023-03-23T19:17:12.675Z,97048.91
2023-03-23T19:19:43.145Z,97047.64
2023-03-23T19:22:12.270Z,97051.25
2023-03-23T19:24:40.533Z,97054.49
2023-03-23T19:27:09.410Z,97056.63
2023-03-23T19:29:37.569Z,97059.05
2023-03-23T19:32:05.627Z,97057.70
2023-03-23T19:34:33.813Z,97055.63
2023-03-23T19:37:05.985Z,97056.33
2023-03-23T19:39:40.453Z,97065.35
2023-03-23T19:42:09.793Z,97063.75
2023-03-23T19:44:37.801Z,97059.17
2023-03-23T19:47:05.814Z,97057.89
2023-03-23T19:49:33.798Z,97055.15
2023-03-23T19:52:07.912Z,97058.91
2023-03-23T19:54:37.700Z,97067.47
2023-03-23T19:57:05.872Z,97065.83
2023-03-23T19:59:33.983Z,97058.23
2023-03-23T20:02:02.334Z,97056.54
2023-03-23T20:04:30.716Z,97063.98
2023-03-23T20:06:59.180Z,97069.13
2023-03-23T20:09:27.006Z,97071.04
2023-03-23T20:11:54.915Z,97072.20
2023-03-23T20:14:22.825Z,97076.08
2023-03-23T20:16:52.746Z,97079.17
2023-03-23T20:19:21.630Z,97084.12
2023-03-23T20:21:49.664Z,97082.29
2023-03-23T20:24:17.653Z,97079.08
2023-03-23T20:26:45.675Z,97078.88
2023-03-23T20:29:13.546Z,97074.73
2023-03-23T20:31:42.179Z,97071.49
2023-03-23T20:34:11.815Z,97071.80
2023-03-23T20:36:42.260Z,97069.66
2023-03-23T20:39:15.048Z,97069.73
2023-03-23T20:41:43.716Z,97071.84
2023-03-23T20:44:14.284Z,97070.86
2023-03-23T20:46:46.551Z,97076.35
2023-03-23T20:49:15.979Z,97076.58
2023-03-23T20:51:44.999Z,97072.13
2023-03-23T20:54:15.684Z,97070.48
2023-03-23T20:56:44.540Z,97074.39
2023-03-23T20:59:13.309Z,97072.71
2023-03-23T21:01:41.388Z,97070.65
2023-03-23T21:04:15.363Z,97072.34
2023-03-23T21:06:44.288Z,97078.41
2023-03-23T21:09:13.020Z,97084.61
2023-03-23T21:11:42.026Z,97086.32
2023-03-23T21:14:10.561Z,97086.17
2023-03-23T21:16:39.002Z,97085.50
2023-03-23T21:19:07.563Z,97088.16
2023-03-23T21:21:35.759Z,97092.19
2023-03-23T21:24:03.814Z,97092.48
2023-03-23T21:26:31.779Z,97093.48
2023-03-23T21:29:00.706Z,97094.49
2023-03-23T21:31:30.770Z,97096.13
2023-03-23T21:33:59.257Z,97096.85
2023-03-23T21:36:27.546Z,97096.94
2023-03-23T21:38:56.088Z,97096.09
2023-03-23T21:41:24.589Z,97093.17
2023-03-23T21:43:52.458Z,97091.27
2023-03-23T21:46:20.368Z,97092.42
2023-03-23T21:48:52.158Z,97095.72
2023-03-23T21:51:22.628Z,97097.71
2023-03-23T21:53:54.206Z,97103.20
2023-03-23T21:56:23.675Z,97108.62
2023-03-23T21:58:51.939Z,97112.90
2023-03-23T22:01:20.282Z,97114.66
2023-03-23T22:03:48.950Z,97114.88
2023-03-23T22:06:18.935Z,97116.50
2023-03-23T22:08:47.775Z,97117.13
2023-03-23T22:11:18.024Z,97114.06
2023-03-23T22:13:46.170Z,97121.90
2023-03-23T22:16:15.130Z,97122.80
2023-03-23T22:18:45.307Z,97118.04
2023-03-23T22:21:14.272Z,97116.95
2023-03-23T22:23:42.966Z,97116.98
2023-03-23T22:26:11.019Z,97113.82
2023-03-23T22:28:39.447Z,97111.73
2023-03-23T22:38:12.662Z,97102.84
2023-03-23T22:40:42.925Z,97103.16
2023-03-23T22:43:11.870Z,97106.00
2023-03-23T22:45:40.425Z,97108.63
2023-03-23T22:48:09.602Z,97101.73
2023-03-23T22:50:38.508Z,97097.23
2023-03-23T22:53:07.588Z,97095.64
2023-03-23T22:55:36.212Z,97096.92
2023-03-23T22:58:04.358Z,97094.30
2023-03-23T23:00:32.592Z,97093.34
2023-03-23T23:03:01.194Z,97096.44
2023-03-23T23:05:29.412Z,97087.48
2023-03-23T23:07:57.562Z,97084.94
2023-03-23T23:10:26.461Z,97085.52
2023-03-23T23:12:54.823Z,97086.45
2023-03-23T23:15:24.659Z,97092.02
2023-03-23T23:17:54.336Z,97092.70
2023-03-23T23:20:24.613Z,97094.92
2023-03-23T23:22:53.233Z,97095.55
2023-03-23T23:25:21.471Z,97090.95
2023-03-23T23:27:50.256Z,97088.41
2023-03-23T23:30:18.408Z,97091.84
2023-03-23T23:32:48.045Z,97094.21
2023-03-23T23:35:16.879Z,97093.95
2023-03-23T23:37:46.582Z,97091.82
2023-03-23T23:40:15.790Z,97096.95
2023-03-23T23:42:45.301Z,97097.63
2023-03-23T23:45:15.587Z,97097.30
2023-03-23T23:47:43.834Z,97098.15
2023-03-23T23:50:12.660Z,97098.56
2023-03-23T23:52:42.640Z,97102.27
2023-03-23T23:55:13.092Z,97098.31
2023-03-23T23:57:41.928Z,97097.86
